sensor_id;sensor_type;location;lat;lon;timestamp;P1;durP1;ratioP1;P2;durP2;ratioP2
22939;SDS011;11636;52.086;5.090;2023-04-03T00:02:13;3.38;;;1.50;;
22939;SDS011;11636;52.086;5.090;2023-04-03T00:04:40;4.35;;;1.50;;
22939;SDS011;11636;52.086;5.090;2023-04-03T00:07:14;3.13;;;1.60;;
22939;SDS011;11636;52.086;5.090;2023-04-03T00:09:41;3.40;;;1.50;;
22939;SDS011;11636;52.086;5.090;2023-04-03T00:12:14;4.47;;;1.60;;
22939;SDS011;11636;52.086;5.090;2023-04-03T00:14:41;4.53;;;1.60;;
22939;SDS011;11636;52.086;5.090;2023-04-03T00:17:15;2.97;;;1.10;;
22939;SDS011;11636;52.086;5.090;2023-04-03T00:19:41;4.47;;;1.58;;
22939;SDS011;11636;52.086;5.090;2023-04-03T00:22:08;2.60;;;1.20;;
22939;SDS011;11636;52.086;5.090;2023-04-03T00:24:42;3.35;;;1.50;;
22939;SDS011;11636;52.086;5.090;2023-04-03T00:27:09;4.78;;;1.50;;
22939;SDS011;11636;52.086;5.090;2023-04-03T00:29:37;3.75;;;1.52;;
22939;SDS011;11636;52.086;5.090;2023-04-03T00:32:10;4.55;;;1.88;;
22939;SDS011;11636;52.086;5.090;2023-04-03T00:34:36;4.00;;;1.60;;
22939;SDS011;11636;52.086;5.090;2023-04-03T00:37:03;2.88;;;1.33;;
22939;SDS011;11636;52.086;5.090;2023-04-03T00:39:37;3.85;;;1.48;;
22939;SDS011;11636;52.086;5.090;2023-04-03T00:42:04;4.05;;;1.70;;
22939;SDS011;11636;52.086;5.090;2023-04-03T00:47:05;2.85;;;1.27;;
22939;SDS011;11636;52.086;5.090;2023-04-03T00:49:35;4.97;;;1.58;;
22939;SDS011;11636;52.086;5.090;2023-04-03T00:52:15;3.92;;;1.60;;
22939;SDS011;11636;52.086;5.090;2023-04-03T00:54:44;2.67;;;1.42;;
22939;SDS011;11636;52.086;5.090;2023-04-03T00:57:19;2.97;;;1.42;;
22939;SDS011;11636;52.086;5.090;2023-04-03T00:59:55;4.25;;;1.80;;
22939;SDS011;11636;52.086;5.090;2023-04-03T01:02:34;4.10;;;1.77;;
22939;SDS011;11636;52.086;5.090;2023-04-03T01:05:01;3.78;;;1.67;;
22939;SDS011;11636;52.086;5.090;2023-04-03T01:07:35;3.65;;;1.50;;
22939;SDS011;11636;52.086;5.090;2023-04-03T01:10:05;5.05;;;1.55;;
22939;SDS011;11636;52.086;5.090;2023-04-03T01:12:43;3.78;;;1.60;;
22939;SDS011;11636;52.086;5.090;2023-04-03T01:15:15;4.00;;;1.65;;
22939;SDS011;11636;52.086;5.090;2023-04-03T01:17:55;4.90;;;1.27;;
22939;SDS011;11636;52.086;5.090;2023-04-03T01:25:45;3.42;;;1.50;;
22939;SDS011;11636;52.086;5.090;2023-04-03T01:28:31;5.70;;;1.55;;
22939;SDS011;11636;52.086;5.090;2023-04-03T01:33:54;3.47;;;1.60;;
22939;SDS011;11636;52.086;5.090;2023-04-03T01:36:23;4.57;;;1.65;;
22939;SDS011;11636;52.086;5.090;2023-04-03T01:38:52;2.85;;;1.58;;
22939;SDS011;11636;52.086;5.090;2023-04-03T01:41:26;3.20;;;1.27;;
22939;SDS011;11636;52.086;5.090;2023-04-03T01:43:54;3.33;;;1.55;;
22939;SDS011;11636;52.086;5.090;2023-04-03T01:46:27;3.83;;;1.50;;
22939;SDS011;11636;52.086;5.090;2023-04-03T01:48:53;4.10;;;1.50;;
22939;SDS011;11636;52.086;5.090;2023-04-03T01:51:20;4.65;;;1.50;;
22939;SDS011;11636;52.086;5.090;2023-04-03T01:53:54;3.10;;;1.42;;
22939;SDS011;11636;52.086;5.090;2023-04-03T01:56:21;3.50;;;1.48;;
22939;SDS011;11636;52.086;5.090;2023-04-03T01:58:48;3.28;;;1.38;;
22939;SDS011;11636;52.086;5.090;2023-04-03T02:01:21;3.75;;;1.50;;
22939;SDS011;11636;52.086;5.090;2023-04-03T02:03:48;3.92;;;1.33;;
22939;SDS011;11636;52.086;5.090;2023-04-03T02:06:21;4.50;;;1.63;;
22939;SDS011;11636;52.086;5.090;2023-04-03T02:08:55;4.63;;;1.50;;
22939;SDS011;11636;52.086;5.090;2023-04-03T02:11:22;2.88;;;1.27;;
22939;SDS011;11636;52.086;5.090;2023-04-03T02:13:48;3.67;;;1.40;;
22939;SDS011;11636;52.086;5.090;2023-04-03T02:16:22;5.07;;;1.80;;
22939;SDS011;11636;52.086;5.090;2023-04-03T02:18:56;3.97;;;1.52;;
22939;SDS011;11636;52.086;5.090;2023-04-03T02:21:30;4.13;;;1.45;;
22939;SDS011;11636;52.086;5.090;2023-04-03T02:24:03;3.25;;;1.50;;
22939;SDS011;11636;52.086;5.090;2023-04-03T02:26:30;3.90;;;1.50;;
22939;SDS011;11636;52.086;5.090;2023-04-03T02:29:03;4.05;;;1.58;;
22939;SDS011;11636;52.086;5.090;2023-04-03T02:31:30;3.70;;;1.55;;
22939;SDS011;11636;52.086;5.090;2023-04-03T02:34:03;4.13;;;1.15;;
22939;SDS011;11636;52.086;5.090;2023-04-03T02:36:36;2.58;;;1.10;;
22939;SDS011;11636;52.086;5.090;2023-04-03T02:39:10;5.43;;;1.77;;
22939;SDS011;11636;52.086;5.090;2023-04-03T02:41:37;3.97;;;1.40;;
22939;SDS011;11636;52.086;5.090;2023-04-03T02:44:11;4.95;;;1.90;;
22939;SDS011;11636;52.086;5.090;2023-04-03T02:46:38;2.55;;;1.02;;
22939;SDS011;11636;52.086;5.090;2023-04-03T02:49:05;6.85;;;1.70;;
22939;SDS011;11636;52.086;5.090;2023-04-03T02:51:42;3.70;;;1.65;;
22939;SDS011;11636;52.086;5.090;2023-04-03T02:54:08;4.65;;;1.42;;
22939;SDS011;11636;52.086;5.090;2023-04-03T02:56:42;4.43;;;1.85;;
22939;SDS011;11636;52.086;5.090;2023-04-03T02:59:09;3.17;;;1.50;;
22939;SDS011;11636;52.086;5.090;2023-04-03T03:01:42;2.95;;;1.20;;
22939;SDS011;11636;52.086;5.090;2023-04-03T03:04:09;3.35;;;1.40;;
22939;SDS011;11636;52.086;5.090;2023-04-03T03:06:42;2.85;;;1.25;;
22939;SDS011;11636;52.086;5.090;2023-04-03T03:09:10;4.32;;;1.63;;
22939;SDS011;11636;52.086;5.090;2023-04-03T03:11:43;4.93;;;1.88;;
22939;SDS011;11636;52.086;5.090;2023-04-03T03:14:10;3.72;;;1.65;;
22939;SDS011;11636;52.086;5.090;2023-04-03T03:16:43;5.15;;;1.60;;
22939;SDS011;11636;52.086;5.090;2023-04-03T03:19:10;4.03;;;1.40;;
22939;SDS011;11636;52.086;5.090;2023-04-03T03:21:44;3.75;;;1.42;;
22939;SDS011;11636;52.086;5.090;2023-04-03T03:24:11;3.53;;;1.50;;
22939;SDS011;11636;52.086;5.090;2023-04-03T03:26:44;6.10;;;2.10;;
22939;SDS011;11636;52.086;5.090;2023-04-03T03:29:11;3.58;;;1.55;;
22939;SDS011;11636;52.086;5.090;2023-04-03T03:31:38;6.55;;;1.70;;
22939;SDS011;11636;52.086;5.090;2023-04-03T03:34:11;4.35;;;1.80;;
22939;SDS011;11636;52.086;5.090;2023-04-03T03:36:38;4.70;;;1.60;;
22939;SDS011;11636;52.086;5.090;2023-04-03T03:39:11;3.17;;;1.50;;
22939;SDS011;11636;52.086;5.090;2023-04-03T03:41:38;3.35;;;1.75;;
22939;SDS011;11636;52.086;5.090;2023-04-03T03:44:05;3.53;;;1.52;;
22939;SDS011;11636;52.086;5.090;2023-04-03T03:46:40;3.72;;;1.42;;
22939;SDS011;11636;52.086;5.090;2023-04-03T03:49:07;4.28;;;1.70;;
22939;SDS011;11636;52.086;5.090;2023-04-03T03:51:34;3.25;;;1.52;;
22939;SDS011;11636;52.086;5.090;2023-04-03T03:54:09;3.20;;;1.52;;
22939;SDS011;11636;52.086;5.090;2023-04-03T03:56:36;4.25;;;1.55;;
22939;SDS011;11636;52.086;5.090;2023-04-03T03:59:11;4.47;;;1.65;;
22939;SDS011;11636;52.086;5.090;2023-04-03T04:01:38;3.03;;;1.60;;
22939;SDS011;11636;52.086;5.090;2023-04-03T04:04:06;4.00;;;1.65;;
22939;SDS011;11636;52.086;5.090;2023-04-03T04:06:39;3.75;;;1.67;;
22939;SDS011;11636;52.086;5.090;2023-04-03T04:09:06;3.78;;;1.75;;
22939;SDS011;11636;52.086;5.090;2023-04-03T04:11:33;3.20;;;1.40;;
22939;SDS011;11636;52.086;5.090;2023-04-03T04:14:10;3.60;;;1.52;;
22939;SDS011;11636;52.086;5.090;2023-04-03T04:16:45;3.20;;;1.60;;
22939;SDS011;11636;52.086;5.090;2023-04-03T04:19:13;4.03;;;1.80;;
22939;SDS011;11636;52.086;5.090;2023-04-03T04:21:47;4.63;;;1.60;;
22939;SDS011;11636;52.086;5.090;2023-04-03T04:24:14;3.95;;;1.65;;
22939;SDS011;11636;52.086;5.090;2023-04-03T04:26:47;4.25;;;1.90;;
22939;SDS011;11636;52.086;5.090;2023-04-03T04:29:14;4.25;;;1.92;;
22939;SDS011;11636;52.086;5.090;2023-04-03T04:31:48;3.05;;;1.60;;
22939;SDS011;11636;52.086;5.090;2023-04-03T04:34:15;4.40;;;1.65;;
22939;SDS011;11636;52.086;5.090;2023-04-03T04:36:49;4.32;;;1.80;;
22939;SDS011;11636;52.086;5.090;2023-04-03T04:39:16;3.70;;;1.90;;
22939;SDS011;11636;52.086;5.090;2023-04-03T04:41:49;3.95;;;1.80;;
22939;SDS011;11636;52.086;5.090;2023-04-03T04:44:16;5.18;;;1.55;;
22939;SDS011;11636;52.086;5.090;2023-04-03T04:46:49;3.30;;;1.63;;
22939;SDS011;11636;52.086;5.090;2023-04-03T04:49:16;3.83;;;1.92;;
22939;SDS011;11636;52.086;5.090;2023-04-03T04:51:49;6.68;;;2.03;;
22939;SDS011;11636;52.086;5.090;2023-04-03T04:54:17;4.70;;;2.00;;
22939;SDS011;11636;52.086;5.090;2023-04-03T04:56:44;3.63;;;1.83;;
22939;SDS011;11636;52.086;5.090;2023-04-03T04:59:18;4.13;;;1.90;;
22939;SDS011;11636;52.086;5.090;2023-04-03T05:01:47;3.83;;;1.83;;
22939;SDS011;11636;52.086;5.090;2023-04-03T05:04:20;3.95;;;1.65;;
22939;SDS011;11636;52.086;5.090;2023-04-03T05:06:47;4.15;;;1.77;;
22939;SDS011;11636;52.086;5.090;2023-04-03T05:09:21;3.35;;;1.50;;
22939;SDS011;11636;52.086;5.090;2023-04-03T05:11:48;3.60;;;1.80;;
22939;SDS011;11636;52.086;5.090;2023-04-03T05:14:22;4.28;;;1.52;;
22939;SDS011;11636;52.086;5.090;2023-04-03T05:16:50;4.82;;;1.98;;
22939;SDS011;11636;52.086;5.090;2023-04-03T05:19:26;4.90;;;1.98;;
22939;SDS011;11636;52.086;5.090;2023-04-03T05:21:53;5.45;;;2.20;;
22939;SDS011;11636;52.086;5.090;2023-04-03T05:24:27;4.00;;;1.92;;
22939;SDS011;11636;52.086;5.090;2023-04-03T05:26:54;4.85;;;2.00;;
22939;SDS011;11636;52.086;5.090;2023-04-03T05:29:21;4.60;;;1.90;;
22939;SDS011;11636;52.086;5.090;2023-04-03T05:31:54;5.25;;;2.00;;
22939;SDS011;11636;52.086;5.090;2023-04-03T05:34:21;4.97;;;2.17;;
22939;SDS011;11636;52.086;5.090;2023-04-03T05:36:55;3.95;;;1.70;;
22939;SDS011;11636;52.086;5.090;2023-04-03T05:39:22;5.32;;;2.00;;
22939;SDS011;11636;52.086;5.090;2023-04-03T05:41:56;5.30;;;1.63;;
22939;SDS011;11636;52.086;5.090;2023-04-03T05:44:29;4.38;;;2.22;;
22939;SDS011;11636;52.086;5.090;2023-04-03T05:46:56;6.68;;;2.50;;
22939;SDS011;11636;52.086;5.090;2023-04-03T05:49:23;4.28;;;2.30;;
22939;SDS011;11636;52.086;5.090;2023-04-03T05:51:56;5.43;;;2.25;;
22939;SDS011;11636;52.086;5.090;2023-04-03T05:54:24;5.53;;;1.83;;
22939;SDS011;11636;52.086;5.090;2023-04-03T05:56:58;4.22;;;2.28;;
22939;SDS011;11636;52.086;5.090;2023-04-03T05:59:25;5.45;;;2.20;;
22939;SDS011;11636;52.086;5.090;2023-04-03T06:01:59;4.53;;;1.90;;
22939;SDS011;11636;52.086;5.090;2023-04-03T06:04:27;5.50;;;2.25;;
22939;SDS011;11636;52.086;5.090;2023-04-03T06:07:00;4.53;;;2.00;;
22939;SDS011;11636;52.086;5.090;2023-04-03T06:09:28;6.57;;;2.30;;
22939;SDS011;11636;52.086;5.090;2023-04-03T06:12:02;4.03;;;1.77;;
22939;SDS011;11636;52.086;5.090;2023-04-03T06:14:29;6.20;;;2.20;;
22939;SDS011;11636;52.086;5.090;2023-04-03T06:17:02;6.63;;;2.40;;
22939;SDS011;11636;52.086;5.090;2023-04-03T06:19:30;4.93;;;1.95;;
22939;SDS011;11636;52.086;5.090;2023-04-03T06:22:07;4.43;;;2.15;;
22939;SDS011;11636;52.086;5.090;2023-04-03T06:24:34;5.15;;;2.00;;
22939;SDS011;11636;52.086;5.090;2023-04-03T06:27:09;7.35;;;2.50;;
22939;SDS011;11636;52.086;5.090;2023-04-03T06:29:38;4.75;;;2.20;;
22939;SDS011;11636;52.086;5.090;2023-04-03T06:32:11;5.68;;;2.30;;
22939;SDS011;11636;52.086;5.090;2023-04-03T06:34:38;5.40;;;2.10;;
22939;SDS011;11636;52.086;5.090;2023-04-03T06:37:05;4.55;;;1.63;;
22939;SDS011;11636;52.086;5.090;2023-04-03T06:39:39;6.10;;;2.22;;
22939;SDS011;11636;52.086;5.090;2023-04-03T06:42:13;6.38;;;2.30;;
22939;SDS011;11636;52.086;5.090;2023-04-03T06:44:47;8.57;;;3.10;;
22939;SDS011;11636;52.086;5.090;2023-04-03T06:47:20;6.78;;;2.75;;
22939;SDS011;11636;52.086;5.090;2023-04-03T06:49:47;5.72;;;2.63;;
22939;SDS011;11636;52.086;5.090;2023-04-03T06:52:20;6.65;;;2.30;;
22939;SDS011;11636;52.086;5.090;2023-04-03T06:54:54;4.72;;;1.98;;
22939;SDS011;11636;52.086;5.090;2023-04-03T06:57:24;7.53;;;2.50;;
22939;SDS011;11636;52.086;5.090;2023-04-03T06:59:57;5.15;;;2.05;;
22939;SDS011;11636;52.086;5.090;2023-04-03T07:02:30;6.47;;;1.70;;
22939;SDS011;11636;52.086;5.090;2023-04-03T07:05:04;5.55;;;1.90;;
22939;SDS011;11636;52.086;5.090;2023-04-03T07:07:39;4.38;;;1.40;;
22939;SDS011;11636;52.086;5.090;2023-04-03T07:10:13;4.40;;;1.65;;
22939;SDS011;11636;52.086;5.090;2023-04-03T07:12:41;4.05;;;1.50;;
22939;SDS011;11636;52.086;5.090;2023-04-03T07:15:09;4.53;;;1.80;;
22939;SDS011;11636;52.086;5.090;2023-04-03T07:17:44;3.35;;;1.40;;
22939;SDS011;11636;52.086;5.090;2023-04-03T07:20:11;4.55;;;1.38;;
22939;SDS011;11636;52.086;5.090;2023-04-03T07:22:38;3.90;;;1.60;;
22939;SDS011;11636;52.086;5.090;2023-04-03T07:25:11;4.68;;;1.48;;
22939;SDS011;11636;52.086;5.090;2023-04-03T07:27:38;4.80;;;1.48;;
22939;SDS011;11636;52.086;5.090;2023-04-03T07:30:05;5.05;;;1.60;;
22939;SDS011;11636;52.086;5.090;2023-04-03T07:32:40;5.05;;;1.98;;
22939;SDS011;11636;52.086;5.090;2023-04-03T07:35:07;4.68;;;1.65;;
22939;SDS011;11636;52.086;5.090;2023-04-03T07:37:41;3.28;;;1.63;;
22939;SDS011;11636;52.086;5.090;2023-04-03T07:40:08;4.85;;;2.00;;
22939;SDS011;11636;52.086;5.090;2023-04-03T07:42:36;4.88;;;1.77;;
22939;SDS011;11636;52.086;5.090;2023-04-03T07:45:10;3.92;;;1.50;;
22939;SDS011;11636;52.086;5.090;2023-04-03T07:47:37;4.57;;;1.50;;
22939;SDS011;11636;52.086;5.090;2023-04-03T07:50:04;4.82;;;1.60;;
22939;SDS011;11636;52.086;5.090;2023-04-03T07:52:37;6.85;;;1.73;;
22939;SDS011;11636;52.086;5.090;2023-04-03T07:55:04;4.43;;;1.60;;
22939;SDS011;11636;52.086;5.090;2023-04-03T07:57:31;4.13;;;1.63;;
22939;SDS011;11636;52.086;5.090;2023-04-03T08:00:05;4.10;;;1.50;;
22939;SDS011;11636;52.086;5.090;2023-04-03T08:02:33;4.13;;;1.42;;
22939;SDS011;11636;52.086;5.090;2023-04-03T08:04:59;4.78;;;1.52;;
22939;SDS011;11636;52.086;5.090;2023-04-03T08:07:32;4.18;;;1.60;;
22939;SDS011;11636;52.086;5.090;2023-04-03T08:09:59;4.50;;;1.60;;
22939;SDS011;11636;52.086;5.090;2023-04-03T08:12:37;4.03;;;1.38;;
22939;SDS011;11636;52.086;5.090;2023-04-03T08:15:05;2.42;;;1.00;;
22939;SDS011;11636;52.086;5.090;2023-04-03T08:17:49;3.38;;;1.13;;
22939;SDS011;11636;52.086;5.090;2023-04-03T08:20:17;2.25;;;0.85;;
22939;SDS011;11636;52.086;5.090;2023-04-03T08:22:51;2.42;;;1.10;;
22939;SDS011;11636;52.086;5.090;2023-04-03T08:25:18;3.88;;;1.23;;
22939;SDS011;11636;52.086;5.090;2023-04-03T08:27:45;3.60;;;1.23;;
22939;SDS011;11636;52.086;5.090;2023-04-03T08:30:18;3.55;;;1.20;;
22939;SDS011;11636;52.086;5.090;2023-04-03T08:32:45;3.85;;;1.13;;
22939;SDS011;11636;52.086;5.090;2023-04-03T08:35:12;2.45;;;1.00;;
22939;SDS011;11636;52.086;5.090;2023-04-03T08:37:46;3.55;;;1.25;;
22939;SDS011;11636;52.086;5.090;2023-04-03T08:40:14;4.22;;;1.20;;
22939;SDS011;11636;52.086;5.090;2023-04-03T08:46:03;2.78;;;1.02;;
22939;SDS011;11636;52.086;5.090;2023-04-03T08:48:33;2.67;;;1.00;;
22939;SDS011;11636;52.086;5.090;2023-04-03T08:51:14;2.22;;;1.00;;
22939;SDS011;11636;52.086;5.090;2023-04-03T08:53:47;2.90;;;1.08;;
22939;SDS011;11636;52.086;5.090;2023-04-03T08:56:35;3.35;;;0.93;;
22939;SDS011;11636;52.086;5.090;2023-04-03T08:59:24;3.22;;;0.80;;
22939;SDS011;11636;52.086;5.090;2023-04-03T09:01:54;2.95;;;1.15;;
22939;SDS011;11636;52.086;5.090;2023-04-03T09:04:35;1.40;;;0.52;;
22939;SDS011;11636;52.086;5.090;2023-04-03T09:07:08;1.95;;;0.70;;
22939;SDS011;11636;52.086;5.090;2023-04-03T09:09:50;3.30;;;0.80;;
22939;SDS011;11636;52.086;5.090;2023-04-03T09:12:19;2.80;;;0.77;;
22939;SDS011;11636;52.086;5.090;2023-04-03T09:18:12;2.85;;;0.88;;
22939;SDS011;11636;52.086;5.090;2023-04-03T09:21:01;2.55;;;0.77;;
22939;SDS011;11636;52.086;5.090;2023-04-03T09:23:42;3.25;;;0.80;;
22939;SDS011;11636;52.086;5.090;2023-04-03T09:26:20;2.28;;;0.70;;
22939;SDS011;11636;52.086;5.090;2023-04-03T09:29:02;2.72;;;1.00;;
22939;SDS011;11636;52.086;5.090;2023-04-03T09:31:40;3.25;;;0.93;;
22939;SDS011;11636;52.086;5.090;2023-04-03T09:34:26;3.00;;;1.00;;
22939;SDS011;11636;52.086;5.090;2023-04-03T09:36:57;2.35;;;0.75;;
22939;SDS011;11636;52.086;5.090;2023-04-03T09:39:51;2.22;;;0.70;;
22939;SDS011;11636;52.086;5.090;2023-04-03T09:42:27;1.63;;;0.60;;
22939;SDS011;11636;52.086;5.090;2023-04-03T09:44:57;1.85;;;0.63;;
22939;SDS011;11636;52.086;5.090;2023-04-03T09:47:29;1.67;;;0.50;;
22939;SDS011;11636;52.086;5.090;2023-04-03T09:52:42;2.10;;;0.70;;
22939;SDS011;11636;52.086;5.090;2023-04-03T09:55:18;2.00;;;0.57;;
22939;SDS011;11636;52.086;5.090;2023-04-03T09:57:55;2.17;;;0.63;;
22939;SDS011;11636;52.086;5.090;2023-04-03T10:00:36;2.50;;;0.77;;
22939;SDS011;11636;52.086;5.090;2023-04-03T10:03:27;2.75;;;0.75;;
22939;SDS011;11636;52.086;5.090;2023-04-03T10:06:03;2.95;;;0.60;;
22939;SDS011;11636;52.086;5.090;2023-04-03T10:08:31;3.85;;;0.68;;
22939;SDS011;11636;52.086;5.090;2023-04-03T10:13:51;2.70;;;0.60;;
22939;SDS011;11636;52.086;5.090;2023-04-03T10:16:20;2.72;;;0.68;;
22939;SDS011;11636;52.086;5.090;2023-04-03T10:19:24;1.90;;;0.60;;
22939;SDS011;11636;52.086;5.090;2023-04-03T10:30:19;1.77;;;0.50;;
22939;SDS011;11636;52.086;5.090;2023-04-03T10:51:29;1.42;;;0.40;;
22939;SDS011;11636;52.086;5.090;2023-04-03T10:54:24;2.42;;;0.70;;
22939;SDS011;11636;52.086;5.090;2023-04-03T10:56:57;6.30;;;0.60;;
22939;SDS011;11636;52.086;5.090;2023-04-03T11:02:27;2.30;;;0.90;;
22939;SDS011;11636;52.086;5.090;2023-04-03T11:05:04;1.98;;;0.60;;
22939;SDS011;11636;52.086;5.090;2023-04-03T11:07:47;1.73;;;0.60;;
22939;SDS011;11636;52.086;5.090;2023-04-03T11:10:41;1.17;;;0.40;;
22939;SDS011;11636;52.086;5.090;2023-04-03T11:13:12;1.67;;;0.50;;
22939;SDS011;11636;52.086;5.090;2023-04-03T11:16:19;1.60;;;0.50;;
22939;SDS011;11636;52.086;5.090;2023-04-03T11:19:01;2.15;;;0.40;;
22939;SDS011;11636;52.086;5.090;2023-04-03T11:21:41;1.52;;;0.43;;
22939;SDS011;11636;52.086;5.090;2023-04-03T11:24:17;1.70;;;0.40;;
22939;SDS011;11636;52.086;5.090;2023-04-03T11:26:56;1.27;;;0.40;;
22939;SDS011;11636;52.086;5.090;2023-04-03T11:29:26;1.75;;;0.50;;
22939;SDS011;11636;52.086;5.090;2023-04-03T11:34:42;1.55;;;0.55;;
22939;SDS011;11636;52.086;5.090;2023-04-03T11:42:42;1.88;;;0.60;;
22939;SDS011;11636;52.086;5.090;2023-04-03T11:45:15;1.75;;;0.45;;
22939;SDS011;11636;52.086;5.090;2023-04-03T11:50:55;1.50;;;0.50;;
22939;SDS011;11636;52.086;5.090;2023-04-03T11:53:30;1.88;;;0.50;;
22939;SDS011;11636;52.086;5.090;2023-04-03T11:56:00;3.35;;;0.60;;
22939;SDS011;11636;52.086;5.090;2023-04-03T11:58:36;3.25;;;0.50;;
22939;SDS011;11636;52.086;5.090;2023-04-03T12:01:04;3.80;;;0.73;;
22939;SDS011;11636;52.086;5.090;2023-04-03T12:03:35;1.95;;;0.50;;
22939;SDS011;11636;52.086;5.090;2023-04-03T12:09:00;2.80;;;0.70;;
22939;SDS011;11636;52.086;5.090;2023-04-03T12:11:30;2.42;;;0.63;;
22939;SDS011;11636;52.086;5.090;2023-04-03T12:14:12;1.70;;;0.60;;
22939;SDS011;11636;52.086;5.090;2023-04-03T12:16:50;3.20;;;0.77;;
22939;SDS011;11636;52.086;5.090;2023-04-03T12:24:45;2.05;;;0.63;;
22939;SDS011;11636;52.086;5.090;2023-04-03T12:35:57;1.75;;;0.80;;
22939;SDS011;11636;52.086;5.090;2023-04-03T12:41:55;3.75;;;0.82;;
22939;SDS011;11636;52.086;5.090;2023-04-03T12:47:51;1.75;;;0.70;;
22939;SDS011;11636;52.086;5.090;2023-04-03T12:50:30;3.92;;;0.60;;
22939;SDS011;11636;52.086;5.090;2023-04-03T12:53:16;2.38;;;0.70;;
22939;SDS011;11636;52.086;5.090;2023-04-03T13:01:53;2.40;;;0.60;;
22939;SDS011;11636;52.086;5.090;2023-04-03T13:04:29;2.65;;;0.70;;
22939;SDS011;11636;52.086;5.090;2023-04-03T13:06:58;1.80;;;0.60;;
22939;SDS011;11636;52.086;5.090;2023-04-03T13:09:31;3.65;;;0.70;;
22939;SDS011;11636;52.086;5.090;2023-04-03T13:12:15;3.80;;;1.08;;
22939;SDS011;11636;52.086;5.090;2023-04-03T13:14:55;2.70;;;1.10;;
22939;SDS011;11636;52.086;5.090;2023-04-03T13:17:30;3.75;;;1.05;;
22939;SDS011;11636;52.086;5.090;2023-04-03T13:20:09;1.55;;;0.55;;
22939;SDS011;11636;52.086;5.090;2023-04-03T13:22:59;2.75;;;0.70;;
22939;SDS011;11636;52.086;5.090;2023-04-03T13:25:35;3.30;;;0.75;;
22939;SDS011;11636;52.086;5.090;2023-04-03T13:28:16;2.60;;;0.60;;
22939;SDS011;11636;52.086;5.090;2023-04-03T13:33:36;2.10;;;0.80;;
22939;SDS011;11636;52.086;5.090;2023-04-03T13:36:17;1.85;;;0.60;;
22939;SDS011;11636;52.086;5.090;2023-04-03T13:38:58;3.75;;;0.95;;
22939;SDS011;11636;52.086;5.090;2023-04-03T13:41:39;3.65;;;1.00;;
22939;SDS011;11636;52.086;5.090;2023-04-03T13:44:22;2.53;;;1.08;;
22939;SDS011;11636;52.086;5.090;2023-04-03T13:49:43;3.33;;;1.10;;
22939;SDS011;11636;52.086;5.090;2023-04-03T13:55:15;2.33;;;0.77;;
22939;SDS011;11636;52.086;5.090;2023-04-03T13:57:56;4.38;;;0.80;;
22939;SDS011;11636;52.086;5.090;2023-04-03T14:00:36;3.35;;;1.30;;
22939;SDS011;11636;52.086;5.090;2023-04-03T14:06:06;3.85;;;1.08;;
22939;SDS011;11636;52.086;5.090;2023-04-03T14:08:41;3.50;;;0.90;;
22939;SDS011;11636;52.086;5.090;2023-04-03T14:11:11;2.10;;;0.65;;
22939;SDS011;11636;52.086;5.090;2023-04-03T14:13:51;2.22;;;0.60;;
22939;SDS011;11636;52.086;5.090;2023-04-03T14:16:27;2.00;;;0.70;;
22939;SDS011;11636;52.086;5.090;2023-04-03T14:19:03;3.13;;;0.98;;
22939;SDS011;11636;52.086;5.090;2023-04-03T14:21:30;2.65;;;1.13;;
22939;SDS011;11636;52.086;5.090;2023-04-03T14:23:58;3.70;;;1.15;;
22939;SDS011;11636;52.086;5.090;2023-04-03T14:26:32;3.90;;;1.27;;
22939;SDS011;11636;52.086;5.090;2023-04-03T14:28:59;3.28;;;1.00;;
22939;SDS011;11636;52.086;5.090;2023-04-03T14:31:26;2.30;;;0.77;;
22939;SDS011;11636;52.086;5.090;2023-04-03T14:34:00;2.03;;;0.68;;
22939;SDS011;11636;52.086;5.090;2023-04-03T14:36:28;2.22;;;0.80;;
22939;SDS011;11636;52.086;5.090;2023-04-03T14:39:04;4.05;;;0.80;;
22939;SDS011;11636;52.086;5.090;2023-04-03T14:41:32;3.40;;;0.93;;
22939;SDS011;11636;52.086;5.090;2023-04-03T14:43:59;2.08;;;0.90;;
22939;SDS011;11636;52.086;5.090;2023-04-03T14:46:36;2.40;;;0.75;;
22939;SDS011;11636;52.086;5.090;2023-04-03T14:49:24;3.08;;;0.80;;
22939;SDS011;11636;52.086;5.090;2023-04-03T14:52:00;3.00;;;0.80;;
22939;SDS011;11636;52.086;5.090;2023-04-03T14:54:27;2.63;;;0.85;;
22939;SDS011;11636;52.086;5.090;2023-04-03T14:56:55;2.58;;;1.00;;
22939;SDS011;11636;52.086;5.090;2023-04-03T14:59:31;2.28;;;0.80;;
22939;SDS011;11636;52.086;5.090;2023-04-03T15:01:59;2.90;;;0.90;;
22939;SDS011;11636;52.086;5.090;2023-04-03T15:04:26;2.50;;;0.80;;
22939;SDS011;11636;52.086;5.090;2023-04-03T15:07:00;2.67;;;0.77;;
22939;SDS011;11636;52.086;5.090;2023-04-03T15:09:27;2.15;;;0.80;;
22939;SDS011;11636;52.086;5.090;2023-04-03T15:12:01;2.35;;;0.80;;
22939;SDS011;11636;52.086;5.090;2023-04-03T15:14:28;4.15;;;1.17;;
22939;SDS011;11636;52.086;5.090;2023-04-03T15:17:15;3.88;;;1.10;;
22939;SDS011;11636;52.086;5.090;2023-04-03T15:19:48;3.10;;;1.30;;
22939;SDS011;11636;52.086;5.090;2023-04-03T15:22:21;5.40;;;1.70;;
22939;SDS011;11636;52.086;5.090;2023-04-03T15:24:49;3.58;;;1.02;;
22939;SDS011;11636;52.086;5.090;2023-04-03T15:27:15;4.32;;;1.10;;
22939;SDS011;11636;52.086;5.090;2023-04-03T15:29:49;2.70;;;0.90;;
22939;SDS011;11636;52.086;5.090;2023-04-03T15:32:16;2.10;;;0.80;;
22939;SDS011;11636;52.086;5.090;2023-04-03T15:34:49;2.83;;;0.80;;
22939;SDS011;11636;52.086;5.090;2023-04-03T15:37:20;4.88;;;0.98;;
22939;SDS011;11636;52.086;5.090;2023-04-03T15:39:53;2.22;;;0.80;;
22939;SDS011;11636;52.086;5.090;2023-04-03T15:42:26;2.53;;;0.95;;
22939;SDS011;11636;52.086;5.090;2023-04-03T15:44:53;3.47;;;0.90;;
22939;SDS011;11636;52.086;5.090;2023-04-03T15:47:20;14.48;;;4.93;;
22939;SDS011;11636;52.086;5.090;2023-04-03T15:49:53;8.65;;;3.95;;
22939;SDS011;11636;52.086;5.090;2023-04-03T15:52:21;7.75;;;3.35;;
22939;SDS011;11636;52.086;5.090;2023-04-03T15:54:48;7.85;;;2.90;;
22939;SDS011;11636;52.086;5.090;2023-04-03T15:57:22;5.45;;;2.47;;
22939;SDS011;11636;52.086;5.090;2023-04-03T15:59:52;4.55;;;1.98;;
22939;SDS011;11636;52.086;5.090;2023-04-03T16:02:27;3.58;;;1.40;;
22939;SDS011;11636;52.086;5.090;2023-04-03T16:04:54;2.88;;;1.23;;
22939;SDS011;11636;52.086;5.090;2023-04-03T16:07:21;3.47;;;1.40;;
22939;SDS011;11636;52.086;5.090;2023-04-03T16:09:55;3.10;;;1.23;;
22939;SDS011;11636;52.086;5.090;2023-04-03T16:12:22;2.47;;;1.10;;
22939;SDS011;11636;52.086;5.090;2023-04-03T16:14:56;3.72;;;1.42;;
22939;SDS011;11636;52.086;5.090;2023-04-03T16:17:23;4.35;;;1.20;;
22939;SDS011;11636;52.086;5.090;2023-04-03T16:19:50;3.90;;;1.20;;
22939;SDS011;11636;52.086;5.090;2023-04-03T16:22:24;3.05;;;0.80;;
22939;SDS011;11636;52.086;5.090;2023-04-03T16:24:53;3.00;;;1.00;;
22939;SDS011;11636;52.086;5.090;2023-04-03T16:27:28;3.58;;;1.30;;
22939;SDS011;11636;52.086;5.090;2023-04-03T16:29:57;4.93;;;1.13;;
22939;SDS011;11636;52.086;5.090;2023-04-03T16:32:31;2.80;;;1.20;;
22939;SDS011;11636;52.086;5.090;2023-04-03T16:34:58;2.95;;;1.10;;
22939;SDS011;11636;52.086;5.090;2023-04-03T16:37:27;3.63;;;1.08;;
22939;SDS011;11636;52.086;5.090;2023-04-03T16:40:00;2.88;;;1.17;;
22939;SDS011;11636;52.086;5.090;2023-04-03T16:42:33;3.55;;;1.30;;
22939;SDS011;11636;52.086;5.090;2023-04-03T16:45:07;3.28;;;1.33;;
22939;SDS011;11636;52.086;5.090;2023-04-03T16:47:41;2.97;;;1.17;;
22939;SDS011;11636;52.086;5.090;2023-04-03T16:50:09;4.32;;;1.85;;
22939;SDS011;11636;52.086;5.090;2023-04-03T16:52:36;3.58;;;1.63;;
22939;SDS011;11636;52.086;5.090;2023-04-03T16:55:09;3.70;;;1.45;;
22939;SDS011;11636;52.086;5.090;2023-04-03T16:57:36;3.80;;;1.40;;
22939;SDS011;11636;52.086;5.090;2023-04-03T17:00:03;3.45;;;1.17;;
22939;SDS011;11636;52.086;5.090;2023-04-03T17:02:39;3.67;;;1.30;;
22939;SDS011;11636;52.086;5.090;2023-04-03T17:05:06;2.83;;;1.05;;